sensor_id;sensor_type;location;lat;lon;timestamp;P1;durP1;ratioP1;P2;durP2;ratioP2
8913;SDS011;4492;48.736;9.092;2022-08-01T00:00:27;2.20;;;2.00;;
8913;SDS011;4492;48.736;9.092;2022-08-01T00:02:52;2.23;;;2.00;;
8913;SDS011;4492;48.736;9.092;2022-08-01T00:05:18;2.10;;;2.00;;
8913;SDS011;4492;48.736;9.092;2022-08-01T00:07:43;2.47;;;2.03;;
8913;SDS011;4492;48.736;9.092;2022-08-01T00:10:10;2.17;;;2.07;;
8913;SDS011;4492;48.736;9.092;2022-08-01T00:12:37;2.47;;;2.07;;
8913;SDS011;4492;48.736;9.092;2022-08-01T00:15:04;2.20;;;2.10;;
8913;SDS011;4492;48.736;9.092;2022-08-01T00:17:31;3.90;;;2.10;;
8913;SDS011;4492;48.736;9.092;2022-08-01T00:19:57;2.80;;;2.00;;
8913;SDS011;4492;48.736;9.092;2022-08-01T00:22:22;2.10;;;2.00;;
8913;SDS011;4492;48.736;9.092;2022-08-01T00:24:48;2.30;;;2.00;;
8913;SDS011;4492;48.736;9.092;2022-08-01T00:27:14;2.23;;;2.13;;
8913;SDS011;4492;48.736;9.092;2022-08-01T00:29:39;2.10;;;2.00;;
8913;SDS011;4492;48.736;9.092;2022-08-01T00:32:05;2.73;;;2.20;;
8913;SDS011;4492;48.736;9.092;2022-08-01T00:34:31;2.37;;;2.17;;
8913;SDS011;4492;48.736;9.092;2022-08-01T00:36:56;3.03;;;2.13;;
8913;SDS011;4492;48.736;9.092;2022-08-01T00:39:22;3.00;;;2.00;;
8913;SDS011;4492;48.736;9.092;2022-08-01T00:41:47;4.63;;;1.83;;
8913;SDS011;4492;48.736;9.092;2022-08-01T00:44:13;3.77;;;2.30;;
8913;SDS011;4492;48.736;9.092;2022-08-01T00:46:38;4.47;;;2.33;;
8913;SDS011;4492;48.736;9.092;2022-08-01T00:49:04;2.47;;;2.00;;
8913;SDS011;4492;48.736;9.092;2022-08-01T00:51:30;2.20;;;2.00;;
8913;SDS011;4492;48.736;9.092;2022-08-01T00:53:55;2.60;;;2.40;;
8913;SDS011;4492;48.736;9.092;2022-08-01T00:56:21;2.17;;;2.07;;
8913;SDS011;4492;48.736;9.092;2022-08-01T00:58:49;2.30;;;2.20;;
8913;SDS011;4492;48.736;9.092;2022-08-01T01:01:15;2.30;;;2.20;;
8913;SDS011;4492;48.736;9.092;2022-08-01T01:03:42;5.93;;;2.50;;
8913;SDS011;4492;48.736;9.092;2022-08-01T01:06:31;2.43;;;2.13;;
8913;SDS011;4492;48.736;9.092;2022-08-01T01:09:06;2.83;;;2.53;;
8913;SDS011;4492;48.736;9.092;2022-08-01T01:12:00;2.60;;;2.37;;
8913;SDS011;4492;48.736;9.092;2022-08-01T01:14:31;2.43;;;2.23;;
8913;SDS011;4492;48.736;9.092;2022-08-01T01:17:03;2.43;;;2.17;;
8913;SDS011;4492;48.736;9.092;2022-08-01T01:19:33;2.30;;;2.10;;
8913;SDS011;4492;48.736;9.092;2022-08-01T01:22:24;3.07;;;2.23;;
8913;SDS011;4492;48.736;9.092;2022-08-01T01:25:04;2.90;;;2.50;;
8913;SDS011;4492;48.736;9.092;2022-08-01T01:30:37;2.57;;;2.37;;
8913;SDS011;4492;48.736;9.092;2022-08-01T01:33:06;2.50;;;2.30;;
8913;SDS011;4492;48.736;9.092;2022-08-01T01:35:36;2.53;;;2.40;;
8913;SDS011;4492;48.736;9.092;2022-08-01T01:38:21;2.40;;;2.20;;
8913;SDS011;4492;48.736;9.092;2022-08-01T01:40:52;3.10;;;2.67;;
8913;SDS011;4492;48.736;9.092;2022-08-01T01:43:20;2.60;;;2.50;;
8913;SDS011;4492;48.736;9.092;2022-08-01T01:45:48;2.70;;;2.50;;
8913;SDS011;4492;48.736;9.092;2022-08-01T01:48:16;2.80;;;2.60;;
8913;SDS011;4492;48.736;9.092;2022-08-01T01:50:44;2.40;;;2.30;;
8913;SDS011;4492;48.736;9.092;2022-08-01T01:53:12;2.63;;;2.43;;
8913;SDS011;4492;48.736;9.092;2022-08-01T01:55:40;2.50;;;2.30;;
8913;SDS011;4492;48.736;9.092;2022-08-01T01:58:08;2.77;;;2.57;;
8913;SDS011;4492;48.736;9.092;2022-08-01T02:00:38;2.70;;;2.50;;
8913;SDS011;4492;48.736;9.092;2022-08-01T02:03:05;3.27;;;2.70;;
8913;SDS011;4492;48.736;9.092;2022-08-01T02:05:32;2.60;;;2.50;;
8913;SDS011;4492;48.736;9.092;2022-08-01T02:08:00;2.80;;;2.60;;
8913;SDS011;4492;48.736;9.092;2022-08-01T02:10:29;4.80;;;2.60;;
8913;SDS011;4492;48.736;9.092;2022-08-01T02:12:56;2.40;;;2.20;;
8913;SDS011;4492;48.736;9.092;2022-08-01T02:15:24;2.90;;;2.47;;
8913;SDS011;4492;48.736;9.092;2022-08-01T02:17:51;2.60;;;2.40;;
8913;SDS011;4492;48.736;9.092;2022-08-01T02:20:18;2.63;;;2.43;;
8913;SDS011;4492;48.736;9.092;2022-08-01T02:22:46;3.57;;;2.80;;
8913;SDS011;4492;48.736;9.092;2022-08-01T02:25:22;2.80;;;2.60;;
8913;SDS011;4492;48.736;9.092;2022-08-01T02:27:54;2.63;;;2.43;;
8913;SDS011;4492;48.736;9.092;2022-08-01T02:30:43;3.20;;;2.90;;
8913;SDS011;4492;48.736;9.092;2022-08-01T02:33:17;2.37;;;2.17;;
8913;SDS011;4492;48.736;9.092;2022-08-01T02:35:46;2.63;;;2.43;;
8913;SDS011;4492;48.736;9.092;2022-08-01T02:38:16;2.57;;;2.37;;
8913;SDS011;4492;48.736;9.092;2022-08-01T02:40:45;3.10;;;2.80;;
8913;SDS011;4492;48.736;9.092;2022-08-01T02:43:13;3.43;;;2.93;;
8913;SDS011;4492;48.736;9.092;2022-08-01T02:45:43;3.03;;;2.73;;
8913;SDS011;4492;48.736;9.092;2022-08-01T02:48:12;4.20;;;2.50;;
8913;SDS011;4492;48.736;9.092;2022-08-01T02:50:42;3.00;;;2.80;;
8913;SDS011;4492;48.736;9.092;2022-08-01T02:53:10;3.27;;;2.70;;
8913;SDS011;4492;48.736;9.092;2022-08-01T02:55:38;3.00;;;2.80;;
8913;SDS011;4492;48.736;9.092;2022-08-01T02:58:06;2.57;;;2.37;;
8913;SDS011;4492;48.736;9.092;2022-08-01T03:00:34;2.63;;;2.43;;
8913;SDS011;4492;48.736;9.092;2022-08-01T03:03:01;2.50;;;2.30;;
8913;SDS011;4492;48.736;9.092;2022-08-01T03:05:28;2.77;;;2.57;;
8913;SDS011;4492;48.736;9.092;2022-08-01T03:07:55;3.20;;;2.40;;
8913;SDS011;4492;48.736;9.092;2022-08-01T03:10:24;2.83;;;2.60;;
8913;SDS011;4492;48.736;9.092;2022-08-01T03:12:51;2.80;;;2.60;;
8913;SDS011;4492;48.736;9.092;2022-08-01T03:15:17;2.50;;;2.30;;
8913;SDS011;4492;48.736;9.092;2022-08-01T03:17:45;2.97;;;2.43;;
8913;SDS011;4492;48.736;9.092;2022-08-01T03:20:14;2.60;;;2.50;;
8913;SDS011;4492;48.736;9.092;2022-08-01T03:22:42;3.17;;;2.87;;
8913;SDS011;4492;48.736;9.092;2022-08-01T03:25:09;2.63;;;2.43;;
8913;SDS011;4492;48.736;9.092;2022-08-01T03:27:37;2.40;;;2.30;;
8913;SDS011;4492;48.736;9.092;2022-08-01T03:30:07;3.17;;;2.60;;
8913;SDS011;4492;48.736;9.092;2022-08-01T03:32:33;3.23;;;2.60;;
8913;SDS011;4492;48.736;9.092;2022-08-01T03:34:59;2.60;;;2.40;;
8913;SDS011;4492;48.736;9.092;2022-08-01T03:37:29;2.67;;;2.43;;
8913;SDS011;4492;48.736;9.092;2022-08-01T03:40:05;2.67;;;2.53;;
8913;SDS011;4492;48.736;9.092;2022-08-01T03:42:44;2.77;;;2.57;;
8913;SDS011;4492;48.736;9.092;2022-08-01T03:45:15;2.80;;;2.30;;
8913;SDS011;4492;48.736;9.092;2022-08-01T03:47:46;2.17;;;2.07;;
8913;SDS011;4492;48.736;9.092;2022-08-01T03:50:13;2.80;;;2.60;;
8913;SDS011;4492;48.736;9.092;2022-08-01T03:52:41;2.40;;;2.30;;
8913;SDS011;4492;48.736;9.092;2022-08-01T03:55:10;2.60;;;2.40;;
8913;SDS011;4492;48.736;9.092;2022-08-01T03:57:37;2.40;;;2.27;;
8913;SDS011;4492;48.736;9.092;2022-08-01T04:00:05;4.03;;;2.40;;
8913;SDS011;4492;48.736;9.092;2022-08-01T04:02:33;2.80;;;2.20;;
8913;SDS011;4492;48.736;9.092;2022-08-01T04:05:00;2.63;;;2.40;;
8913;SDS011;4492;48.736;9.092;2022-08-01T04:07:27;3.37;;;2.20;;
8913;SDS011;4492;48.736;9.092;2022-08-01T04:09:54;2.17;;;2.07;;
8913;SDS011;4492;48.736;9.092;2022-08-01T04:12:20;2.40;;;2.20;;
8913;SDS011;4492;48.736;9.092;2022-08-01T04:14:46;2.30;;;2.10;;
8913;SDS011;4492;48.736;9.092;2022-08-01T04:17:12;3.47;;;2.40;;
8913;SDS011;4492;48.736;9.092;2022-08-01T04:19:38;2.17;;;2.07;;
8913;SDS011;4492;48.736;9.092;2022-08-01T04:22:04;2.67;;;2.50;;
8913;SDS011;4492;48.736;9.092;2022-08-01T04:24:30;3.00;;;2.20;;
8913;SDS011;4492;48.736;9.092;2022-08-01T04:26:58;2.70;;;2.30;;
8913;SDS011;4492;48.736;9.092;2022-08-01T04:29:26;2.33;;;2.23;;
8913;SDS011;4492;48.736;9.092;2022-08-01T04:31:54;2.07;;;1.97;;
8913;SDS011;4492;48.736;9.092;2022-08-01T04:34:22;2.60;;;2.40;;
8913;SDS011;4492;48.736;9.092;2022-08-01T04:36:50;2.63;;;2.43;;
8913;SDS011;4492;48.736;9.092;2022-08-01T04:39:18;2.67;;;2.37;;
8913;SDS011;4492;48.736;9.092;2022-08-01T04:41:48;2.67;;;2.33;;
8913;SDS011;4492;48.736;9.092;2022-08-01T04:44:15;2.27;;;2.17;;
8913;SDS011;4492;48.736;9.092;2022-08-01T04:46:41;2.43;;;2.27;;
8913;SDS011;4492;48.736;9.092;2022-08-01T04:49:08;2.43;;;2.17;;
8913;SDS011;4492;48.736;9.092;2022-08-01T04:51:36;2.57;;;2.20;;
8913;SDS011;4492;48.736;9.092;2022-08-01T04:54:13;2.07;;;1.97;;
8913;SDS011;4492;48.736;9.092;2022-08-01T04:56:39;2.17;;;1.90;;
8913;SDS011;4492;48.736;9.092;2022-08-01T04:59:06;2.23;;;2.13;;
8913;SDS011;4492;48.736;9.092;2022-08-01T05:01:50;2.37;;;2.17;;
8913;SDS011;4492;48.736;9.092;2022-08-01T05:04:16;1.97;;;1.87;;
8913;SDS011;4492;48.736;9.092;2022-08-01T05:06:41;2.97;;;2.30;;
8913;SDS011;4492;48.736;9.092;2022-08-01T05:09:07;3.50;;;2.23;;
8913;SDS011;4492;48.736;9.092;2022-08-01T05:11:32;3.23;;;2.60;;
8913;SDS011;4492;48.736;9.092;2022-08-01T05:13:58;3.03;;;2.20;;
8913;SDS011;4492;48.736;9.092;2022-08-01T05:16:23;2.87;;;2.47;;
8913;SDS011;4492;48.736;9.092;2022-08-01T05:18:49;3.37;;;2.80;;
8913;SDS011;4492;48.736;9.092;2022-08-01T05:21:14;2.90;;;2.20;;
8913;SDS011;4492;48.736;9.092;2022-08-01T05:23:40;2.73;;;2.13;;
8913;SDS011;4492;48.736;9.092;2022-08-01T05:26:05;2.40;;;2.30;;
8913;SDS011;4492;48.736;9.092;2022-08-01T05:28:31;2.40;;;2.30;;
8913;SDS011;4492;48.736;9.092;2022-08-01T05:30:56;2.63;;;2.10;;
8913;SDS011;4492;48.736;9.092;2022-08-01T05:33:22;2.07;;;1.87;;
8913;SDS011;4492;48.736;9.092;2022-08-01T05:35:47;2.07;;;1.97;;
8913;SDS011;4492;48.736;9.092;2022-08-01T05:38:13;2.30;;;2.20;;
8913;SDS011;4492;48.736;9.092;2022-08-01T05:40:38;3.43;;;2.40;;
8913;SDS011;4492;48.736;9.092;2022-08-01T05:43:04;2.63;;;2.30;;
8913;SDS011;4492;48.736;9.092;2022-08-01T05:45:29;2.10;;;1.97;;
8913;SDS011;4492;48.736;9.092;2022-08-01T05:47:55;2.60;;;2.50;;
8913;SDS011;4492;48.736;9.092;2022-08-01T05:50:20;3.00;;;2.03;;
8913;SDS011;4492;48.736;9.092;2022-08-01T05:52:46;2.97;;;2.00;;
8913;SDS011;4492;48.736;9.092;2022-08-01T05:55:11;2.30;;;2.10;;
8913;SDS011;4492;48.736;9.092;2022-08-01T05:57:37;2.47;;;1.80;;
8913;SDS011;4492;48.736;9.092;2022-08-01T06:00:02;1.90;;;1.80;;
8913;SDS011;4492;48.736;9.092;2022-08-01T06:02:28;2.67;;;1.80;;
8913;SDS011;4492;48.736;9.092;2022-08-01T06:04:54;1.60;;;1.50;;
8913;SDS011;4492;48.736;9.092;2022-08-01T06:07:20;2.53;;;2.00;;
8913;SDS011;4492;48.736;9.092;2022-08-01T06:09:45;1.60;;;1.50;;
8913;SDS011;4492;48.736;9.092;2022-08-01T06:12:11;2.57;;;1.90;;
8913;SDS011;4492;48.736;9.092;2022-08-01T06:14:36;4.30;;;1.57;;
8913;SDS011;4492;48.736;9.092;2022-08-01T06:17:02;1.80;;;1.70;;
8913;SDS011;4492;48.736;9.092;2022-08-01T06:19:27;1.70;;;1.60;;
8913;SDS011;4492;48.736;9.092;2022-08-01T06:21:53;1.73;;;1.60;;
8913;SDS011;4492;48.736;9.092;2022-08-01T06:24:19;2.33;;;1.50;;
8913;SDS011;4492;48.736;9.092;2022-08-01T06:26:44;1.40;;;1.40;;
8913;SDS011;4492;48.736;9.092;2022-08-01T06:29:10;3.07;;;1.60;;
8913;SDS011;4492;48.736;9.092;2022-08-01T06:31:35;1.50;;;1.40;;
8913;SDS011;4492;48.736;9.092;2022-08-01T06:34:01;1.70;;;1.40;;
8913;SDS011;4492;48.736;9.092;2022-08-01T06:36:26;1.50;;;1.40;;
8913;SDS011;4492;48.736;9.092;2022-08-01T06:38:52;1.73;;;1.60;;
8913;SDS011;4492;48.736;9.092;2022-08-01T06:41:17;1.70;;;1.60;;
8913;SDS011;4492;48.736;9.092;2022-08-01T06:43:43;1.50;;;1.40;;
8913;SDS011;4492;48.736;9.092;2022-08-01T06:46:08;1.70;;;1.60;;
8913;SDS011;4492;48.736;9.092;2022-08-01T06:48:34;2.47;;;1.43;;
8913;SDS011;4492;48.736;9.092;2022-08-01T06:51:04;1.43;;;1.33;;
8913;SDS011;4492;48.736;9.092;2022-08-01T06:53:39;3.33;;;1.43;;
8913;SDS011;4492;48.736;9.092;2022-08-01T06:56:05;1.70;;;1.60;;
8913;SDS011;4492;48.736;9.092;2022-08-01T06:58:31;1.70;;;1.60;;
8913;SDS011;4492;48.736;9.092;2022-08-01T07:00:59;1.80;;;1.70;;
8913;SDS011;4492;48.736;9.092;2022-08-01T07:03:24;1.33;;;1.30;;
8913;SDS011;4492;48.736;9.092;2022-08-01T07:05:50;1.40;;;1.30;;
8913;SDS011;4492;48.736;9.092;2022-08-01T07:08:15;1.33;;;1.27;;
8913;SDS011;4492;48.736;9.092;2022-08-01T07:10:41;1.50;;;1.40;;
8913;SDS011;4492;48.736;9.092;2022-08-01T07:13:08;1.70;;;1.50;;
8913;SDS011;4492;48.736;9.092;2022-08-01T07:15:33;3.33;;;1.57;;
8913;SDS011;4492;48.736;9.092;2022-08-01T07:17:59;1.97;;;1.60;;
8913;SDS011;4492;48.736;9.092;2022-08-01T07:20:28;2.43;;;1.67;;
8913;SDS011;4492;48.736;9.092;2022-08-01T07:22:54;1.70;;;1.60;;
8913;SDS011;4492;48.736;9.092;2022-08-01T07:25:19;2.90;;;1.70;;
8913;SDS011;4492;48.736;9.092;2022-08-01T07:27:45;1.90;;;1.80;;
8913;SDS011;4492;48.736;9.092;2022-08-01T07:30:11;1.70;;;1.60;;
8913;SDS011;4492;48.736;9.092;2022-08-01T07:32:37;1.83;;;1.70;;
8913;SDS011;4492;48.736;9.092;2022-08-01T07:35:03;1.97;;;1.80;;
8913;SDS011;4492;48.736;9.092;2022-08-01T07:37:29;2.47;;;1.70;;
8913;SDS011;4492;48.736;9.092;2022-08-01T07:39:54;1.80;;;1.70;;
8913;SDS011;4492;48.736;9.092;2022-08-01T07:42:20;2.10;;;1.90;;
8913;SDS011;4492;48.736;9.092;2022-08-01T07:44:45;1.90;;;1.63;;
8913;SDS011;4492;48.736;9.092;2022-08-01T07:47:11;2.00;;;1.90;;
8913;SDS011;4492;48.736;9.092;2022-08-01T07:49:36;2.27;;;1.87;;
8913;SDS011;4492;48.736;9.092;2022-08-01T07:52:02;1.87;;;1.80;;
8913;SDS011;4492;48.736;9.092;2022-08-01T07:54:28;2.20;;;2.00;;
8913;SDS011;4492;48.736;9.092;2022-08-01T07:56:54;2.27;;;1.87;;
8913;SDS011;4492;48.736;9.092;2022-08-01T07:59:20;3.10;;;1.90;;
8913;SDS011;4492;48.736;9.092;2022-08-01T08:01:48;2.17;;;2.00;;
8913;SDS011;4492;48.736;9.092;2022-08-01T08:04:15;2.20;;;2.10;;
8913;SDS011;4492;48.736;9.092;2022-08-01T08:06:41;2.03;;;1.93;;
8913;SDS011;4492;48.736;9.092;2022-08-01T08:09:06;2.43;;;2.33;;
8913;SDS011;4492;48.736;9.092;2022-08-01T08:11:32;2.73;;;2.53;;
8913;SDS011;4492;48.736;9.092;2022-08-01T08:13:57;2.70;;;2.50;;
8913;SDS011;4492;48.736;9.092;2022-08-01T08:16:23;2.60;;;2.40;;
8913;SDS011;4492;48.736;9.092;2022-08-01T08:18:48;3.20;;;3.00;;
8913;SDS011;4492;48.736;9.092;2022-08-01T08:21:14;2.47;;;2.33;;
8913;SDS011;4492;48.736;9.092;2022-08-01T08:23:39;4.77;;;2.67;;
8913;SDS011;4492;48.736;9.092;2022-08-01T08:26:23;2.50;;;2.40;;
8913;SDS011;4492;48.736;9.092;2022-08-01T08:28:53;2.30;;;2.10;;
8913;SDS011;4492;48.736;9.092;2022-08-01T08:31:18;2.40;;;2.30;;
8913;SDS011;4492;48.736;9.092;2022-08-01T08:33:44;2.17;;;2.07;;
8913;SDS011;4492;48.736;9.092;2022-08-01T08:36:09;2.83;;;2.63;;
8913;SDS011;4492;48.736;9.092;2022-08-01T08:38:36;2.77;;;2.57;;
8913;SDS011;4492;48.736;9.092;2022-08-01T08:41:01;2.60;;;2.40;;
8913;SDS011;4492;48.736;9.092;2022-08-01T08:43:27;3.63;;;2.77;;
8913;SDS011;4492;48.736;9.092;2022-08-01T08:45:53;3.53;;;2.77;;
8913;SDS011;4492;48.736;9.092;2022-08-01T08:48:18;3.60;;;2.70;;
8913;SDS011;4492;48.736;9.092;2022-08-01T08:50:45;3.30;;;3.00;;
8913;SDS011;4492;48.736;9.092;2022-08-01T08:53:11;3.60;;;2.90;;
8913;SDS011;4492;48.736;9.092;2022-08-01T08:55:39;3.33;;;3.10;;
8913;SDS011;4492;48.736;9.092;2022-08-01T08:58:09;3.30;;;3.10;;
8913;SDS011;4492;48.736;9.092;2022-08-01T09:00:39;3.30;;;3.10;;
8913;SDS011;4492;48.736;9.092;2022-08-01T09:03:05;2.63;;;2.53;;
8913;SDS011;4492;48.736;9.092;2022-08-01T09:05:31;2.90;;;2.70;;
8913;SDS011;4492;48.736;9.092;2022-08-01T09:07:57;3.20;;;3.00;;
8913;SDS011;4492;48.736;9.092;2022-08-01T09:10:22;3.80;;;3.10;;
8913;SDS011;4492;48.736;9.092;2022-08-01T09:13:05;3.03;;;2.83;;
8913;SDS011;4492;48.736;9.092;2022-08-01T09:15:42;3.10;;;2.90;;
8913;SDS011;4492;48.736;9.092;2022-08-01T09:21:09;3.00;;;2.70;;
8913;SDS011;4492;48.736;9.092;2022-08-01T09:26:11;3.70;;;3.30;;
8913;SDS011;4492;48.736;9.092;2022-08-01T09:28:37;4.73;;;3.80;;
8913;SDS011;4492;48.736;9.092;2022-08-01T09:31:05;4.37;;;4.10;;
8913;SDS011;4492;48.736;9.092;2022-08-01T09:33:49;5.00;;;4.60;;
8913;SDS011;4492;48.736;9.092;2022-08-01T09:36:23;3.70;;;3.50;;
8913;SDS011;4492;48.736;9.092;2022-08-01T09:38:51;4.60;;;4.30;;
8913;SDS011;4492;48.736;9.092;2022-08-01T09:41:19;4.60;;;4.13;;
8913;SDS011;4492;48.736;9.092;2022-08-01T09:43:55;4.10;;;3.80;;
8913;SDS011;4492;48.736;9.092;2022-08-01T09:46:20;4.13;;;3.83;;
8913;SDS011;4492;48.736;9.092;2022-08-01T09:48:56;4.27;;;3.97;;
8913;SDS011;4492;48.736;9.092;2022-08-01T09:51:30;4.33;;;3.93;;
8913;SDS011;4492;48.736;9.092;2022-08-01T09:53:57;4.00;;;3.60;;
8913;SDS011;4492;48.736;9.092;2022-08-01T09:56:24;6.37;;;3.73;;
8913;SDS011;4492;48.736;9.092;2022-08-01T09:58:54;4.30;;;4.00;;
8913;SDS011;4492;48.736;9.092;2022-08-01T10:01:23;4.83;;;4.43;;
8913;SDS011;4492;48.736;9.092;2022-08-01T10:04:05;4.70;;;4.30;;
8913;SDS011;4492;48.736;9.092;2022-08-01T10:06:39;5.53;;;4.93;;
8913;SDS011;4492;48.736;9.092;2022-08-01T10:09:07;5.13;;;4.70;;
8913;SDS011;4492;48.736;9.092;2022-08-01T10:11:33;7.80;;;5.13;;
8913;SDS011;4492;48.736;9.092;2022-08-01T10:14:03;4.87;;;4.47;;
8913;SDS011;4492;48.736;9.092;2022-08-01T10:16:30;5.63;;;4.70;;
8913;SDS011;4492;48.736;9.092;2022-08-01T10:18:58;4.53;;;4.23;;
8913;SDS011;4492;48.736;9.092;2022-08-01T10:21:26;4.63;;;4.23;;
8913;SDS011;4492;48.736;9.092;2022-08-01T10:23:53;4.83;;;4.43;;
8913;SDS011;4492;48.736;9.092;2022-08-01T10:26:20;4.37;;;4.07;;
8913;SDS011;4492;48.736;9.092;2022-08-01T10:28:50;4.57;;;4.10;;
8913;SDS011;4492;48.736;9.092;2022-08-01T10:31:17;4.73;;;3.97;;
8913;SDS011;4492;48.736;9.092;2022-08-01T10:33:44;4.17;;;3.77;;
8913;SDS011;4492;48.736;9.092;2022-08-01T10:36:09;3.50;;;3.30;;
8913;SDS011;4492;48.736;9.092;2022-08-01T10:38:36;4.80;;;3.77;;
8913;SDS011;4492;48.736;9.092;2022-08-01T10:41:02;5.03;;;3.63;;
8913;SDS011;4492;48.736;9.092;2022-08-01T10:43:29;4.00;;;3.70;;
8913;SDS011;4492;48.736;9.092;2022-08-01T10:45:55;3.13;;;2.93;;
8913;SDS011;4492;48.736;9.092;2022-08-01T10:51:11;4.03;;;3.73;;
8913;SDS011;4492;48.736;9.092;2022-08-01T10:53:37;3.50;;;3.30;;
8913;SDS011;4492;48.736;9.092;2022-08-01T10:56:12;4.53;;;3.80;;
8913;SDS011;4492;48.736;9.092;2022-08-01T10:58:39;3.60;;;3.30;;
8913;SDS011;4492;48.736;9.092;2022-08-01T11:01:17;3.70;;;3.40;;
8913;SDS011;4492;48.736;9.092;2022-08-01T11:04:07;3.83;;;3.50;;
8913;SDS011;4492;48.736;9.092;2022-08-01T11:09:05;3.83;;;3.63;;
8913;SDS011;4492;48.736;9.092;2022-08-01T11:14:25;3.57;;;3.37;;
8913;SDS011;4492;48.736;9.092;2022-08-01T11:16:51;3.53;;;3.20;;
8913;SDS011;4492;48.736;9.092;2022-08-01T11:19:16;3.80;;;3.50;;
8913;SDS011;4492;48.736;9.092;2022-08-01T11:32:34;2.77;;;2.63;;
8913;SDS011;4492;48.736;9.092;2022-08-01T11:35:12;2.60;;;2.50;;
8913;SDS011;4492;48.736;9.092;2022-08-01T11:37:39;2.60;;;2.40;;
8913;SDS011;4492;48.736;9.092;2022-08-01T11:40:19;3.20;;;2.80;;
8913;SDS011;4492;48.736;9.092;2022-08-01T11:42:49;2.63;;;2.43;;
8913;SDS011;4492;48.736;9.092;2022-08-01T11:45:52;3.70;;;2.70;;
8913;SDS011;4492;48.736;9.092;2022-08-01T11:48:24;2.83;;;2.63;;
8913;SDS011;4492;48.736;9.092;2022-08-01T11:50:55;3.30;;;2.87;;
8913;SDS011;4492;48.736;9.092;2022-08-01T11:53:21;2.70;;;2.50;;
8913;SDS011;4492;48.736;9.092;2022-08-01T11:55:51;2.67;;;2.50;;
8913;SDS011;4492;48.736;9.092;2022-08-01T11:58:21;2.87;;;2.67;;
8913;SDS011;4492;48.736;9.092;2022-08-01T12:00:51;2.50;;;2.30;;
8913;SDS011;4492;48.736;9.092;2022-08-01T12:03:22;2.70;;;2.47;;
8913;SDS011;4492;48.736;9.092;2022-08-01T12:05:53;2.37;;;2.27;;
8913;SDS011;4492;48.736;9.092;2022-08-01T12:08:26;2.53;;;2.40;;
8913;SDS011;4492;48.736;9.092;2022-08-01T12:10:54;2.50;;;2.30;;
8913;SDS011;4492;48.736;9.092;2022-08-01T12:13:19;2.50;;;2.30;;
8913;SDS011;4492;48.736;9.092;2022-08-01T12:15:46;2.63;;;2.47;;
8913;SDS011;4492;48.736;9.092;2022-08-01T12:18:12;2.67;;;2.47;;
8913;SDS011;4492;48.736;9.092;2022-08-01T12:20:39;2.20;;;2.10;;
8913;SDS011;4492;48.736;9.092;2022-08-01T12:23:08;2.50;;;2.30;;
8913;SDS011;4492;48.736;9.092;2022-08-01T12:25:36;2.67;;;2.47;;
8913;SDS011;4492;48.736;9.092;2022-08-01T12:28:05;2.13;;;2.03;;
8913;SDS011;4492;48.736;9.092;2022-08-01T12:30:32;2.70;;;2.50;;
8913;SDS011;4492;48.736;9.092;2022-08-01T12:33:05;2.30;;;2.10;;
8913;SDS011;4492;48.736;9.092;2022-08-01T12:35:32;3.50;;;2.30;;
8913;SDS011;4492;48.736;9.092;2022-08-01T12:38:03;2.80;;;2.53;;
8913;SDS011;4492;48.736;9.092;2022-08-01T12:40:31;3.37;;;2.80;;
8913;SDS011;4492;48.736;9.092;2022-08-01T12:43:05;3.63;;;2.80;;
8913;SDS011;4492;48.736;9.092;2022-08-01T12:45:36;5.20;;;2.60;;
8913;SDS011;4492;48.736;9.092;2022-08-01T12:48:10;4.13;;;2.60;;
8913;SDS011;4492;48.736;9.092;2022-08-01T12:50:38;2.70;;;2.50;;
8913;SDS011;4492;48.736;9.092;2022-08-01T12:53:07;2.53;;;2.33;;
8913;SDS011;4492;48.736;9.092;2022-08-01T12:55:34;2.83;;;2.63;;
8913;SDS011;4492;48.736;9.092;2022-08-01T12:58:13;4.07;;;2.47;;
8913;SDS011;4492;48.736;9.092;2022-08-01T13:00:40;3.23;;;2.30;;
8913;SDS011;4492;48.736;9.092;2022-08-01T13:03:10;4.00;;;2.20;;
8913;SDS011;4492;48.736;9.092;2022-08-01T13:05:47;2.30;;;2.10;;
8913;SDS011;4492;48.736;9.092;2022-08-01T13:08:16;2.60;;;2.40;;
8913;SDS011;4492;48.736;9.092;2022-08-01T13:10:43;2.67;;;2.47;;
8913;SDS011;4492;48.736;9.092;2022-08-01T13:13:09;2.63;;;2.28;;
8913;SDS011;4492;48.736;9.092;2022-08-01T13:15:36;2.85;;;2.63;;
8913;SDS011;4492;48.736;9.092;2022-08-01T13:20:50;2.90;;;2.20;;
8913;SDS011;4492;48.736;9.092;2022-08-01T13:23:31;2.17;;;2.07;;
8913;SDS011;4492;48.736;9.092;2022-08-01T13:25:57;3.93;;;2.30;;
8913;SDS011;4492;48.736;9.092;2022-08-01T13:28:23;2.30;;;2.20;;
8913;SDS011;4492;48.736;9.092;2022-08-01T13:30:51;3.67;;;2.90;;
8913;SDS011;4492;48.736;9.092;2022-08-01T13:33:17;2.20;;;2.10;;
8913;SDS011;4492;48.736;9.092;2022-08-01T13:35:43;6.30;;;2.47;;
8913;SDS011;4492;48.736;9.092;2022-08-01T13:38:09;3.80;;;2.50;;
8913;SDS011;4492;48.736;9.092;2022-08-01T13:40:34;5.47;;;2.30;;
8913;SDS011;4492;48.736;9.092;2022-08-01T13:43:00;3.00;;;2.80;;
8913;SDS011;4492;48.736;9.092;2022-08-01T13:45:26;2.40;;;2.20;;
8913;SDS011;4492;48.736;9.092;2022-08-01T13:47:51;3.17;;;2.20;;
8913;SDS011;4492;48.736;9.092;2022-08-01T13:50:17;2.80;;;2.60;;
8913;SDS011;4492;48.736;9.092;2022-08-01T13:52:42;2.57;;;2.37;;
8913;SDS011;4492;48.736;9.092;2022-08-01T13:55:08;2.20;;;2.10;;
8913;SDS011;4492;48.736;9.092;2022-08-01T13:57:33;4.10;;;2.43;;
8913;SDS011;4492;48.736;9.092;2022-08-01T13:59:59;2.33;;;2.13;;
8913;SDS011;4492;48.736;9.092;2022-08-01T14:02:25;2.60;;;2.30;;
8913;SDS011;4492;48.736;9.092;2022-08-01T14:04:52;2.37;;;2.27;;
8913;SDS011;4492;48.736;9.092;2022-08-01T14:07:19;2.83;;;2.70;;
8913;SDS011;4492;48.736;9.092;2022-08-01T14:09:45;4.80;;;2.40;;
8913;SDS011;4492;48.736;9.092;2022-08-01T14:12:11;2.73;;;2.50;;
8913;SDS011;4492;48.736;9.092;2022-08-01T14:14:36;2.60;;;2.43;;
8913;SDS011;4492;48.736;9.092;2022-08-01T14:17:03;2.57;;;2.37;;
8913;SDS011;4492;48.736;9.092;2022-08-01T14:19:29;2.60;;;2.47;;
8913;SDS011;4492;48.736;9.092;2022-08-01T14:21:54;4.93;;;2.33;;
8913;SDS011;4492;48.736;9.092;2022-08-01T14:24:21;2.97;;;2.30;;
8913;SDS011;4492;48.736;9.092;2022-08-01T14:26:48;2.50;;;2.40;;
8913;SDS011;4492;48.736;9.092;2022-08-01T14:29:14;3.40;;;2.50;;
8913;SDS011;4492;48.736;9.092;2022-08-01T14:31:39;4.50;;;2.28;;
8913;SDS011;4492;48.736;9.092;2022-08-01T14:34:05;2.95;;;2.50;;
8913;SDS011;4492;48.736;9.092;2022-08-01T14:36:31;2.53;;;2.40;;
8913;SDS011;4492;48.736;9.092;2022-08-01T14:38:56;2.35;;;2.22;;
8913;SDS011;4492;48.736;9.092;2022-08-01T14:41:22;2.38;;;2.17;;
8913;SDS011;4492;48.736;9.092;2022-08-01T14:43:47;2.50;;;2.30;;
8913;SDS011;4492;48.736;9.092;2022-08-01T14:46:13;2.60;;;2.40;;
8913;SDS011;4492;48.736;9.092;2022-08-01T14:48:40;2.78;;;2.67;;
8913;SDS011;4492;48.736;9.092;2022-08-01T14:51:06;4.95;;;2.60;;
8913;SDS011;4492;48.736;9.092;2022-08-01T14:53:32;2.20;;;2.10;;
8913;SDS011;4492;48.736;9.092;2022-08-01T14:55:58;2.60;;;2.50;;
8913;SDS011;4492;48.736;9.092;2022-08-01T14:58:23;2.53;;;2.20;;
8913;SDS011;4492;48.736;9.092;2022-08-01T15:00:49;4.23;;;2.67;;
8913;SDS011;4492;48.736;9.092;2022-08-01T15:03:14;2.20;;;2.10;;
8913;SDS011;4492;48.736;9.092;2022-08-01T15:05:40;3.20;;;2.57;;
8913;SDS011;4492;48.736;9.092;2022-08-01T15:08:06;3.90;;;2.30;;
8913;SDS011;4492;48.736;9.092;2022-08-01T15:10:31;2.50;;;2.40;;
8913;SDS011;4492;48.736;9.092;2022-08-01T15:12:58;2.20;;;2.10;;
8913;SDS011;4492;48.736;9.092;2022-08-01T15:15:25;2.30;;;2.20;;
8913;SDS011;4492;48.736;9.092;2022-08-01T15:17:51;2.50;;;2.30;;
8913;SDS011;4492;48.736;9.092;2022-08-01T15:20:17;2.37;;;2.27;;
8913;SDS011;4492;48.736;9.092;2022-08-01T15:22:43;2.17;;;2.00;;
8913;SDS011;4492;48.736;9.092;2022-08-01T15:25:09;2.13;;;1.93;;
8913;SDS011;4492;48.736;9.092;2022-08-01T15:27:35;2.50;;;2.30;;
8913;SDS011;4492;48.736;9.092;2022-08-01T15:30:01;2.60;;;2.17;;
8913;SDS011;4492;48.736;9.092;2022-08-01T15:32:27;2.10;;;2.00;;
8913;SDS011;4492;48.736;9.092;2022-08-01T15:34:53;1.93;;;1.80;;
8913;SDS011;4492;48.736;9.092;2022-08-01T15:37:19;2.33;;;2.13;;
8913;SDS011;4492;48.736;9.092;2022-08-01T15:39:44;2.23;;;2.13;;
8913;SDS011;4492;48.736;9.092;2022-08-01T15:42:11;2.33;;;2.10;;
8913;SDS011;4492;48.736;9.092;2022-08-01T15:44:38;2.43;;;2.23;;
8913;SDS011;4492;48.736;9.092;2022-08-01T15:47:04;3.43;;;2.40;;
8913;SDS011;4492;48.736;9.092;2022-08-01T15:49:30;2.20;;;2.10;;